Time;durP1;ratioP1;P1;durP2;ratioP2;P2;SDS_P1;SDS_P2;PMS_P1;PMS_P2;Temp;Humidity;BMP_temperature;BMP_pressure;BME280_temperature;BME280_humidity;BME280_pressure;Samples;Min_cycle;Max_cycle;Signal;HPM_P1;HPM_P2
2022/01/19 00:01:34;;;;;;;29.55;8.75;;;;;;;12.77;47.10;101984.41;4417252;32;20395;-70
2022/01/19 00:04:00;;;;;;;16.98;7.87;;;;;;;12.87;46.43;101969.34;4418467;32;20042;-70
2022/01/19 00:06:26;;;;;;;22.00;7.93;;;;;;;12.81;46.79;101968.22;4420394;32;20040;-70
2022/01/19 00:08:52;;;;;;;19.77;8.43;;;;;;;12.80;46.82;101975.09;4414490;32;20045;-70
2022/01/19 00:11:19;;;;;;;19.90;8.82;;;;;;;13.03;46.26;101969.53;4420207;32;20640;-70
2022/01/19 00:13:45;;;;;;;21.73;8.50;;;;;;;12.90;46.40;101959.19;4421240;32;20077;-70
2022/01/19 00:16:11;;;;;;;26.77;9.00;;;;;;;12.68;46.91;101960.72;4417176;32;20544;-70
2022/01/19 00:18:38;;;;;;;22.67;8.82;;;;;;;12.73;46.56;101946.13;4417049;32;20671;-70
2022/01/19 00:21:03;;;;;;;22.13;9.02;;;;;;;12.71;46.77;101942.94;4418345;32;20090;-70
2022/01/19 00:23:29;;;;;;;22.05;8.27;;;;;;;12.85;46.36;101949.19;4418048;32;20234;-71
2022/01/19 00:25:55;;;;;;;24.92;9.27;;;;;;;12.80;46.55;101941.19;4419033;32;20145;-70
2022/01/19 00:28:22;;;;;;;26.48;8.75;;;;;;;12.68;46.99;101938.94;4417437;32;20072;-70
2022/01/19 00:30:48;;;;;;;30.65;9.38;;;;;;;12.69;47.04;101932.06;4418269;32;20082;-70
2022/01/19 00:33:15;;;;;;;21.70;8.52;;;;;;;12.71;46.83;101929.63;4418808;32;20046;-70
2022/01/19 00:35:41;;;;;;;21.98;8.52;;;;;;;12.73;46.74;101924.31;4420422;32;20534;-70
2022/01/19 00:38:09;;;;;;;24.48;8.07;;;;;;;12.72;46.85;101919.91;4424333;32;20046;-70
2022/01/19 00:40:37;;;;;;;24.55;8.80;;;;;;;12.47;47.82;101929.94;4419688;32;20202;-70
2022/01/19 00:43:04;;;;;;;30.37;9.23;;;;;;;12.45;47.81;101924.72;4419091;32;20084;-70
2022/01/19 00:45:29;;;;;;;27.58;9.15;;;;;;;12.34;47.88;101932.53;4418311;32;20081;-70
2022/01/19 00:47:55;;;;;;;21.25;8.27;;;;;;;12.29;47.89;101938.63;4417043;32;20407;-70
2022/01/19 00:50:24;;;;;;;26.70;8.80;;;;;;;12.32;47.79;101920.03;4419745;32;20072;-70
2022/01/19 00:52:51;;;;;;;20.02;9.25;;;;;;;12.65;47.37;101922.03;4417910;32;20413;-70
2022/01/19 00:55:18;;;;;;;24.52;8.55;;;;;;;12.78;46.47;101923.03;4421125;32;20053;-70
2022/01/19 00:57:44;;;;;;;21.02;7.45;;;;;;;12.78;46.83;101906.91;4417598;32;20087;-70
2022/01/19 01:00:12;;;;;;;22.75;8.82;;;;;;;12.78;46.54;101900.44;4418227;32;20035;-70
2022/01/19 01:02:38;;;;;;;25.80;8.43;;;;;;;13.26;45.65;101898.91;4417146;32;20049;-71
2022/01/19 01:05:04;;;;;;;19.50;7.65;;;;;;;12.86;46.24;101885.78;4421664;32;20494;-70
2022/01/19 01:07:33;;;;;;;19.52;7.68;;;;;;;13.28;45.40;101879.50;4415669;32;20112;-70
2022/01/19 01:10:00;;;;;;;20.77;7.85;;;;;;;12.91;45.89;101868.38;4418777;32;20076;-70
2022/01/19 01:12:42;;;;;;;26.20;8.43;;;;;;;13.57;45.05;101869.25;4419587;32;20029;-70
2022/01/19 01:15:35;;;;;;;16.20;7.90;;;;;;;13.74;44.39;101875.81;4417285;32;20137;-70
2022/01/19 01:20:44;;;;;;;22.67;8.73;;;;;;;14.06;43.40;101907.16;3978142;32;15120307;-71
2022/01/19 01:23:10;;;;;;;24.75;7.90;;;;;;;13.70;44.21;101904.22;4430641;32;20038;-71
2022/01/19 01:25:38;;;;;;;16.75;7.90;;;;;;;13.78;44.16;101904.87;4429584;32;20090;-71
2022/01/19 01:28:04;;;;;;;18.87;7.60;;;;;;;13.64;44.74;101905.13;4432386;32;20037;-71
2022/01/19 01:30:30;;;;;;;17.15;7.80;;;;;;;13.34;45.29;101911.69;4429049;32;20101;-71
2022/01/19 01:32:56;;;;;;;24.80;9.23;;;;;;;13.12;45.40;101909.66;4426577;32;20061;-71
2022/01/19 01:35:23;;;;;;;23.77;8.57;;;;;;;12.86;46.30;101879.34;4433545;32;20033;-71
2022/01/19 01:37:49;;;;;;;20.37;8.43;;;;;;;12.86;46.50;101857.53;4425675;32;20038;-71
2022/01/19 01:40:15;;;;;;;24.50;8.82;;;;;;;12.90;46.19;101857.50;4421794;32;20095;-71
2022/01/19 01:42:42;;;;;;;19.75;8.60;;;;;;;12.87;46.44;101850.69;4430320;32;20084;-71
2022/01/19 01:45:13;;;;;;;29.08;8.23;;;;;;;13.00;45.36;101843.22;4430592;32;20102;-71
2022/01/19 01:47:44;;;;;;;21.17;8.07;;;;;;;13.24;45.55;101827.88;4430310;32;20463;-71
2022/01/19 01:55:32;;;;;;;;;;;;;;;13.33;45.42;101810.34;4431075;32;20051;-71
2022/01/19 01:57:58;;;;;;;24.83;7.90;;;;;;;13.54;45.10;101805.09;4429507;32;19948;-70
2022/01/19 02:00:25;;;;;;;20.25;7.55;;;;;;;13.27;45.66;101812.87;4428431;32;20136;-71
2022/01/19 02:02:52;;;;;;;22.10;8.73;;;;;;;13.69;44.78;101828.25;4428952;32;20073;-71
2022/01/19 02:05:18;;;;;;;14.95;7.35;;;;;;;13.07;46.08;101817.66;4431628;32;20073;-71
2022/01/19 02:10:56;;;;;;;19.20;7.47;;;;;;;13.82;45.05;101817.88;3982211;32;15023807;-71
2022/01/19 02:21:38;;;;;;;22.02;7.78;;;;;;;13.79;44.65;101796.13;4431891;32;20064;-71
2022/01/19 02:24:08;;;;;;;16.92;7.00;;;;;;;14.22;43.74;101798.81;4428175;32;20512;-71
2022/01/19 02:26:52;;;;;;;21.73;7.18;;;;;;;14.34;43.35;101789.69;4433193;32;20056;-70
2022/01/19 02:51:10;;;;;;;;;;;;;;;14.03;44.42;101709.88;4415392;32;20064;-70
2022/01/19 02:53:36;;;;;;;21.67;8.02;;;;;;;14.44;43.83;101707.31;4415972;32;20330;-70
2022/01/19 02:56:09;;;;;;;23.15;8.25;;;;;;;14.13;44.45;101699.53;4416607;32;20615;-70
2022/01/19 02:58:42;;;;;;;22.10;7.22;;;;;;;13.86;44.91;101692.06;4412307;32;20611;-70
2022/01/19 03:09:24;;;;;;;;;;;;;;;13.43;46.04;101643.31;4416460;32;20026;-70
2022/01/19 03:11:51;;;;;;;18.10;7.60;;;;;;;13.88;45.65;101641.50;4414722;32;20404;-70
2022/01/19 03:14:18;;;;;;;21.77;7.97;;;;;;;13.18;47.45;101636.59;4416605;32;20080;-70
2022/01/19 03:16:45;;;;;;;28.45;7.78;;;;;;;13.19;47.26;101638.19;4418164;32;20066;-70
2022/01/19 03:19:12;;;;;;;19.42;8.75;;;;;;;13.77;45.87;101629.63;4416406;32;20081;-69
2022/01/19 03:21:39;;;;;;;17.73;7.57;;;;;;;13.75;46.17;101629.25;4413509;32;20061;-70
2022/01/19 03:24:06;;;;;;;17.00;8.90;;;;;;;13.88;45.84;101610.38;4413817;32;20367;-70
2022/01/19 03:26:31;;;;;;;19.33;8.68;;;;;;;13.67;46.18;101602.38;4415679;32;20065;-70
2022/01/19 03:28:57;;;;;;;16.95;8.32;;;;;;;13.69;46.08;101587.81;4414708;32;20200;-70
2022/01/19 03:31:23;;;;;;;20.23;8.05;;;;;;;13.87;45.52;101571.97;4411243;32;20073;-70
2022/01/19 03:33:50;;;;;;;19.60;8.07;;;;;;;13.92;45.39;101565.81;4413085;32;20115;-70
2022/01/19 03:36:17;;;;;;;22.80;7.70;;;;;;;14.07;45.14;101555.72;4420040;32;20094;-70
2022/01/19 03:38:43;;;;;;;22.27;7.68;;;;;;;13.80;45.79;101562.87;4417239;32;20037;-70
2022/01/19 03:41:09;;;;;;;22.55;8.10;;;;;;;13.86;45.75;101573.22;4410661;32;20030;-70
2022/01/19 03:43:35;;;;;;;20.80;8.32;;;;;;;13.60;46.02;101570.62;4411140;32;20109;-70
2022/01/19 03:46:03;;;;;;;19.50;8.82;;;;;;;13.90;45.55;101581.63;4414886;32;20029;-70
2022/01/19 03:51:08;;;;;;;23.67;8.77;;;;;;;14.18;44.77;101594.28;3977723;32;15021793;-71
2022/01/19 03:53:34;;;;;;;19.65;7.93;;;;;;;14.06;45.18;101584.47;4435376;32;20029;-71
2022/01/19 03:56:00;;;;;;;21.60;7.75;;;;;;;14.21;44.97;101579.25;4436407;32;20093;-71
2022/01/19 03:58:26;;;;;;;18.33;6.90;;;;;;;14.38;44.69;101575.16;4437134;32;20026;-71
2022/01/19 04:00:55;;;;;;;19.23;7.37;;;;;;;14.28;44.56;101560.06;4433615;32;20544;-71
2022/01/19 04:03:29;;;;;;;16.87;7.93;;;;;;;14.46;44.64;101553.94;4433593;32;20104;-71
2022/01/19 04:06:01;;;;;;;21.15;8.20;;;;;;;14.58;44.55;101558.87;4430142;32;20033;-71
2022/01/19 04:08:27;;;;;;;20.70;7.90;;;;;;;14.36;44.92;101555.03;4438817;32;20056;-71
2022/01/19 04:10:53;;;;;;;15.40;7.47;;;;;;;14.62;44.42;101551.06;4435661;32;20045;-71
2022/01/19 04:13:29;;;;;;;17.25;6.50;;;;;;;14.41;45.11;101549.59;4434401;32;20078;-71
2022/01/19 04:15:55;;;;;;;15.15;7.12;;;;;;;14.69;44.12;101556.50;4437090;32;20048;-71
2022/01/19 04:18:21;;;;;;;13.07;6.87;;;;;;;14.90;44.26;101564.41;4436654;32;20894;-71
2022/01/19 04:20:50;;;;;;;20.77;7.22;;;;;;;14.80;44.34;101551.34;4435580;32;20081;-71
2022/01/19 04:23:19;;;;;;;15.75;7.28;;;;;;;14.72;44.38;101549.94;4436962;32;20066;-71
2022/01/19 04:25:45;;;;;;;10.73;6.32;;;;;;;15.00;43.94;101546.34;4436030;32;20048;-71
2022/01/19 04:28:10;;;;;;;13.90;6.55;;;;;;;14.81;44.18;101555.78;4438761;32;20694;-71
2022/01/19 04:30:38;;;;;;;19.98;7.50;;;;;;;14.82;44.32;101555.31;4435817;32;20092;-71
2022/01/19 04:33:10;;;;;;;16.83;7.30;;;;;;;14.87;44.57;101543.44;4434856;32;20041;-71
2022/01/19 04:36:26;;;;;;;20.35;7.62;;;;;;;14.77;44.65;101549.41;4437038;32;20085;-71
2022/01/19 04:44:36;;;;;;;15.07;6.72;;;;;;;14.58;45.34;101531.34;4438337;32;20128;-71
2022/01/19 05:01:36;;;;;;;12.70;6.62;;;;;;;15.38;44.11;101533.03;4431517;32;19953;-71
2022/01/19 05:05:54;;;;;;;16.08;6.47;;;;;;;15.27;45.43;101513.47;3978742;32;15021853;-71
2022/01/19 05:08:40;;;;;;;;;;;;;;;15.27;45.43;101513.47;4435378;32;20076;-71
2022/01/19 05:13:52;;;;;;;;;;;;;;;14.93;46.13;101496.31;4431209;32;20048;-71
2022/01/19 05:16:22;;;;;;;12.25;5.25;;;;;;;15.47;45.13;101487.78;4436249;32;19965;-71
2022/01/19 05:18:49;;;;;;;11.57;5.85;;;;;;;15.51;45.38;101480.72;4436702;32;20037;-71
2022/01/19 05:21:15;;;;;;;13.23;6.05;;;;;;;15.45;45.60;101482.56;4434041;32;20073;-71
2022/01/19 05:23:41;;;;;;;13.10;5.45;;;;;;;15.58;45.10;101474.81;4433974;32;20068;-71
2022/01/19 05:26:07;;;;;;;13.70;5.85;;;;;;;15.59;45.26;101470.72;4433494;32;20423;-71
2022/01/19 05:28:32;;;;;;;18.33;5.93;;;;;;;15.32;45.98;101467.56;4435241;32;20125;-71
2022/01/19 05:30:58;;;;;;;10.73;5.45;;;;;;;15.33;46.24;101446.44;4430195;32;20118;-71
2022/01/19 05:33:24;;;;;;;14.18;5.72;;;;;;;15.44;46.17;101446.13;4433435;32;20143;-71
2022/01/19 05:35:50;;;;;;;12.65;5.90;;;;;;;15.39;46.22;101450.31;4432698;32;20528;-71
2022/01/19 05:38:15;;;;;;;13.62;5.82;;;;;;;15.37;46.50;101444.31;4437015;32;20458;-71
2022/01/19 05:40:41;;;;;;;11.57;5.45;;;;;;;15.44;46.30;101432.72;4430664;32;20121;-71
2022/01/19 05:43:07;;;;;;;10.13;5.03;;;;;;;15.16;47.03;101432.84;4429674;32;20652;-71
2022/01/19 05:45:33;;;;;;;14.05;5.28;;;;;;;15.21;47.22;101415.25;4436348;32;20034;-71
2022/01/19 05:47:59;;;;;;;11.20;5.72;;;;;;;14.78;47.91;101400.81;4432321;32;20103;-71
2022/01/19 05:50:24;;;;;;;13.85;6.15;;;;;;;15.15;47.34;101405.72;4431189;32;20099;-71
2022/01/19 05:52:51;;;;;;;18.20;5.45;;;;;;;15.24;47.40;101397.31;4434576;32;20042;-71
2022/01/19 05:55:18;;;;;;;10.38;5.22;;;;;;;15.36;47.52;101388.00;4436128;32;20076;-71
2022/01/19 05:57:44;;;;;;;14.35;5.70;;;;;;;15.28;47.52;101383.84;4429388;32;20034;-71
2022/01/19 06:00:10;;;;;;;13.25;5.95;;;;;;;15.35;47.28;101397.78;4431975;32;20559;-71
2022/01/19 06:02:36;;;;;;;11.50;6.10;;;;;;;15.38;47.27;101392.03;4434681;32;20081;-71
2022/01/19 06:05:03;;;;;;;10.07;5.70;;;;;;;15.44;47.50;101395.84;4426644;32;20138;-71
2022/01/19 06:07:31;;;;;;;14.27;5.80;;;;;;;15.70;46.95;101388.06;4432622;32;20111;-71
2022/01/19 06:10:05;;;;;;;12.35;5.70;;;;;;;15.79;46.26;101382.50;4430910;32;20041;-71
2022/01/19 06:12:31;;;;;;;13.73;5.43;;;;;;;15.57;46.73;101373.13;4427146;32;20065;-71
2022/01/19 06:14:57;;;;;;;11.35;5.60;;;;;;;15.86;46.20;101380.19;4424638;32;20048;-71
2022/01/19 06:17:22;;;;;;;9.15;5.28;;;;;;;16.11;45.68;101370.81;4424122;32;20450;-71
2022/01/19 06:19:48;;;;;;;12.60;6.03;;;;;;;16.07;45.86;101358.00;4423563;32;20069;-71
2022/01/19 06:22:16;;;;;;;13.20;5.45;;;;;;;16.35;45.18;101374.75;4423851;32;20436;-71
2022/01/19 06:24:42;;;;;;;14.30;4.90;;;;;;;16.19;45.95;101380.62;4421196;32;20399;-71
2022/01/19 06:27:09;;;;;;;10.80;4.55;;;;;;;16.33;45.44;101370.78;4420162;32;20107;-71
2022/01/19 06:29:35;;;;;;;16.23;5.22;;;;;;;16.24;46.13;101362.19;4425233;32;20038;-71
2022/01/19 06:32:00;;;;;;;10.27;4.10;;;;;;;16.15;46.07;101359.28;4422396;32;20064;-71
2022/01/19 06:34:26;;;;;;;7.50;3.35;;;;;;;16.24;45.99;101354.47;4421495;32;20029;-71
2022/01/19 06:36:53;;;;;;;10.70;3.70;;;;;;;16.08;47.17;101351.84;4425333;32;20398;-71
2022/01/19 06:39:19;;;;;;;13.60;3.67;;;;;;;16.14;47.34;101344.28;4423791;32;20412;-71
2022/01/19 06:41:46;;;;;;;8.98;3.22;;;;;;;16.07;48.24;101341.72;4419982;32;20111;-71
2022/01/19 06:44:13;;;;;;;10.23;2.80;;;;;;;16.08;47.87;101336.84;4423649;32;20076;-71
2022/01/19 06:46:40;;;;;;;8.82;3.00;;;;;;;15.93;48.36;101343.03;4420331;32;20099;-71
2022/01/19 06:49:06;;;;;;;12.35;3.22;;;;;;;16.21;47.60;101334.72;4423654;32;20068;-71
2022/01/19 06:51:32;;;;;;;11.82;3.03;;;;;;;15.88;48.99;101328.66;4411075;32;20077;-72
2022/01/19 06:53:58;;;;;;;7.78;3.97;;;;;;;16.18;48.71;101332.81;4413677;32;20090;-72
2022/01/19 06:56:24;;;;;;;9.55;4.20;;;;;;;16.04;49.01;101322.78;4419979;32;20477;-70
2022/01/19 06:58:50;;;;;;;13.18;4.97;;;;;;;15.95;49.34;101317.81;4422754;32;20119;-70
2022/01/19 07:01:16;;;;;;;8.98;4.72;;;;;;;15.79;49.83;101303.03;4422281;32;20033;-70
2022/01/19 07:03:42;;;;;;;12.55;4.55;;;;;;;15.55;50.18;101304.69;4421005;32;20442;-70
2022/01/19 07:06:11;;;;;;;10.77;4.70;;;;;;;15.58;50.62;101295.28;4421776;32;20480;-70
2022/01/19 07:08:39;;;;;;;13.98;4.78;;;;;;;15.52;50.03;101291.44;4422726;32;20050;-70
2022/01/19 07:11:05;;;;;;;13.45;4.87;;;;;;;15.59;50.77;101294.81;4420375;32;20081;-70
2022/01/19 07:13:31;;;;;;;12.48;5.20;;;;;;;15.51;50.90;101298.37;4420276;32;20385;-70
2022/01/19 07:15:57;;;;;;;9.00;4.18;;;;;;;15.36;51.19;101297.25;4422819;32;20034;-70
2022/01/19 07:18:22;;;;;;;14.93;5.07;;;;;;;15.28;51.54;101302.38;4422053;32;20422;-70
2022/01/19 07:20:48;;;;;;;9.68;4.05;;;;;;;15.33;51.55;101303.84;4422269;32;20068;-70
2022/01/19 07:23:14;;;;;;;14.38;5.18;;;;;;;14.98;52.41;101308.69;4421299;32;20105;-70
2022/01/19 07:25:40;;;;;;;14.07;4.65;;;;;;;15.36;51.74;101300.09;4420662;32;20249;-70
2022/01/19 07:28:08;;;;;;;10.95;4.22;;;;;;;15.25;52.47;101305.34;4415756;32;20095;-70
2022/01/19 07:30:35;;;;;;;9.60;4.07;;;;;;;15.47;52.06;101306.22;4415846;32;20108;-70
2022/01/19 07:33:01;;;;;;;38.53;4.75;;;;;;;15.44;52.46;101298.63;4415833;32;20378;-70
2022/01/19 07:35:27;;;;;;;9.02;3.45;;;;;;;15.27;52.77;101300.00;4410286;32;20214;-70
2022/01/19 07:37:53;;;;;;;9.30;3.78;;;;;;;15.34;52.73;101305.44;4412539;32;20082;-70
2022/01/19 07:40:18;;;;;;;7.82;3.83;;;;;;;15.21;53.31;101298.97;4418031;32;20101;-70
2022/01/19 07:42:44;;;;;;;8.30;3.83;;;;;;;15.38;52.93;101300.47;4415890;32;20029;-70
2022/01/19 07:45:11;;;;;;;9.82;3.62;;;;;;;15.48;52.46;101296.44;4411118;32;20169;-70
2022/01/19 07:47:37;;;;;;;9.15;3.28;;;;;;;15.48;52.70;101285.09;4406996;32;20092;-70
2022/01/19 07:50:04;;;;;;;10.98;4.22;;;;;;;15.49;52.75;101293.16;4407885;32;20057;-69
2022/01/19 07:52:29;;;;;;;9.50;4.00;;;;;;;15.93;51.86;101302.53;4408735;32;20114;-70
2022/01/19 07:54:55;;;;;;;10.02;4.40;;;;;;;15.82;51.56;101313.47;4405873;32;20070;-70
2022/01/19 07:57:21;;;;;;;12.20;3.35;;;;;;;15.64;51.56;101301.94;4408018;32;20104;-70
2022/01/19 07:59:47;;;;;;;6.78;3.47;;;;;;;15.86;51.20;101302.75;4410081;32;20090;-70
2022/01/19 08:02:13;;;;;;;8.20;4.15;;;;;;;15.89;51.05;101313.19;4407086;32;20544;-70
2022/01/19 08:04:39;;;;;;;15.52;8.10;;;;;;;15.78;50.83;101312.81;4406270;32;20085;-70
2022/01/19 08:07:05;;;;;;;13.40;5.85;;;;;;;16.09;50.40;101313.66;4397720;32;20046;-70
2022/01/19 08:09:31;;;;;;;9.90;6.00;;;;;;;16.07;50.52;101310.50;4403266;32;20600;-70
2022/01/19 08:11:58;;;;;;;14.68;7.07;;;;;;;16.16;50.20;101302.03;4400288;32;20739;-69
2022/01/19 08:14:24;;;;;;;16.60;8.10;;;;;;;16.37;49.83;101289.06;4396444;32;20120;-70
2022/01/19 08:16:51;;;;;;;18.50;9.45;;;;;;;16.41;49.60;101278.38;4397168;32;20407;-70
2022/01/19 08:19:17;;;;;;;15.65;7.78;;;;;;;16.65;49.59;101285.91;4402223;32;20606;-70
2022/01/19 08:21:43;;;;;;;12.45;6.75;;;;;;;16.38;50.13;101277.22;4396813;32;20318;-70
2022/01/19 08:24:09;;;;;;;11.27;6.87;;;;;;;16.43;50.13;101278.69;4400325;32;20089;-70
2022/01/19 08:26:35;;;;;;;11.15;7.10;;;;;;;16.33;50.57;101283.53;4400286;32;20154;-71
2022/01/19 08:29:01;;;;;;;18.42;8.68;;;;;;;16.30;50.75;101301.50;4403458;32;20403;-70
2022/01/19 08:31:26;;;;;;;12.70;7.28;;;;;;;16.33;50.90;101291.25;4395208;32;20077;-70
2022/01/19 08:33:52;;;;;;;11.63;7.62;;;;;;;16.27;51.08;101291.06;4394692;32;20553;-70
2022/01/19 08:36:21;;;;;;;17.95;7.97;;;;;;;16.55;50.84;101298.50;4396245;32;20068;-70
2022/01/19 08:38:49;;;;;;;10.82;7.43;;;;;;;16.50;51.21;101295.50;4399421;32;20060;-70
2022/01/19 08:41:15;;;;;;;25.83;8.00;;;;;;;16.26;51.64;101302.91;4396856;32;20045;-70
2022/01/19 08:43:41;;;;;;;13.88;7.85;;;;;;;16.50;51.08;101298.34;4402171;32;20273;-70
2022/01/19 08:46:06;;;;;;;17.05;9.27;;;;;;;16.65;50.89;101305.81;4397152;32;20091;-70
2022/01/19 08:48:32;;;;;;;14.60;9.70;;;;;;;16.77;50.85;101309.81;4401241;32;20223;-71
2022/01/19 08:50:58;;;;;;;14.38;9.45;;;;;;;16.63;51.31;101308.31;4402368;32;20076;-71
2022/01/19 08:53:24;;;;;;;16.37;9.65;;;;;;;16.51;51.07;101323.41;4399887;32;20664;-71
2022/01/19 08:55:50;;;;;;;14.30;8.95;;;;;;;16.91;50.32;101329.91;4400573;32;20105;-70
2022/01/19 08:58:16;;;;;;;9.43;6.00;;;;;;;16.62;51.26;101337.22;4401020;32;20126;-70
2022/01/19 09:00:44;;;;;;;12.30;7.10;;;;;;;16.38;51.74;101350.31;4404428;32;20063;-69
2022/01/19 09:03:12;;;;;;;7.68;5.12;;;;;;;16.85;51.12;101362.28;4397768;32;20053;-70
2022/01/19 09:05:38;;;;;;;6.25;4.78;;;;;;;16.64;51.35;101368.81;4400805;32;20050;-69
2022/01/19 09:08:04;;;;;;;6.37;3.85;;;;;;;16.94;50.38;101370.84;4401301;32;20514;-69
2022/01/19 09:10:30;;;;;;;4.97;2.92;;;;;;;16.68;50.75;101375.94;4401951;32;20179;-69
2022/01/19 09:12:56;;;;;;;2.78;1.05;;;;;;;16.46;50.83;101391.41;4401209;32;20050;-70
2022/01/19 09:15:23;;;;;;;3.60;0.90;;;;;;;16.09;50.40;101392.38;4401694;32;20074;-70
2022/01/19 09:17:48;;;;;;;4.50;1.10;;;;;;;15.76;49.35;101384.22;4403581;32;20384;-69
2022/01/19 09:20:15;;;;;;;2.60;1.00;;;;;;;16.21;48.88;101402.87;4402495;32;20482;-70
2022/01/19 09:22:42;;;;;;;9.60;1.50;;;;;;;16.40;48.58;101433.00;4403089;32;20218;-70
2022/01/19 09:25:09;;;;;;;5.82;1.58;;;;;;;15.96;48.14;101420.81;4402794;32;20034;-70
2022/01/19 09:27:37;;;;;;;10.15;1.87;;;;;;;16.08;47.43;101417.16;4402974;32;20797;-70
2022/01/19 09:30:07;;;;;;;9.80;1.50;;;;;;;15.79;47.52;101428.72;4400776;32;20050;-70
2022/01/19 09:32:33;;;;;;;8.73;1.40;;;;;;;16.21;46.79;101431.28;4394328;32;20572;-70
2022/01/19 09:35:06;;;;;;;13.43;1.80;;;;;;;15.32;46.70;101429.87;4400603;32;20038;-70
2022/01/19 09:37:32;;;;;;;13.18;2.60;;;;;;;15.78;46.03;101414.97;4399357;32;20537;-70
2022/01/19 09:39:59;;;;;;;7.00;1.30;;;;;;;15.33;45.92;101408.75;4399443;32;20050;-70
2022/01/19 09:42:24;;;;;;;10.63;1.90;;;;;;;15.67;45.17;101425.88;4397453;32;20038;-70
2022/01/19 09:44:52;;;;;;;8.77;1.40;;;;;;;16.04;44.56;101432.72;4399893;32;20093;-71
2022/01/19 09:47:18;;;;;;;14.02;1.70;;;;;;;16.42;43.49;101434.16;4397583;32;20034;-69
2022/01/19 09:49:45;;;;;;;10.30;1.58;;;;;;;16.99;42.90;101436.44;4360375;32;20982;-70
2022/01/19 09:52:11;;;;;;;7.00;2.08;;;;;;;17.17;41.65;101427.19;4397847;32;20046;-69
2022/01/19 09:54:36;;;;;;;14.48;2.17;;;;;;;17.18;41.80;101435.25;4403109;32;20299;-69
2022/01/19 09:57:04;;;;;;;7.32;1.27;;;;;;;17.28;41.28;101424.72;4403910;32;20070;-70
2022/01/19 09:59:30;;;;;;;14.23;2.05;;;;;;;17.21;41.19;101414.41;4404238;32;20046;-69
2022/01/19 10:02:01;;;;;;;15.55;2.67;;;;;;;16.81;41.61;101424.94;4403521;32;20157;-69
2022/01/19 10:04:30;;;;;;;14.30;2.00;;;;;;;17.41;41.02;101414.00;4401679;32;20114;-71
2022/01/19 10:07:20;;;;;;;15.57;2.15;;;;;;;17.50;41.10;101412.03;4403490;32;20097;-70
2022/01/19 10:17:54;;;;;;;13.50;2.17;;;;;;;18.54;39.26;101398.50;4414727;32;20084;-71
2022/01/19 10:20:23;;;;;;;12.98;1.90;;;;;;;17.72;39.50;101386.28;4413611;32;20118;-71
2022/01/19 10:22:49;;;;;;;12.70;2.08;;;;;;;17.66;39.88;101380.44;4413714;32;20093;-71
2022/01/19 10:25:15;;;;;;;14.50;2.20;;;;;;;17.60;39.60;101390.06;4416235;32;20058;-72
2022/01/19 10:27:43;;;;;;;12.70;1.58;;;;;;;18.27;38.75;101392.78;4413771;32;20139;-72
2022/01/19 10:32:55;;;;;;;13.20;1.70;;;;;;;17.65;38.17;101415.06;3995635;31;15014080;-72
2022/01/19 10:35:26;;;;;;;11.68;1.92;;;;;;;18.25;38.20;101418.91;4449909;32;20036;-71
2022/01/19 10:43:33;;;;;;;8.40;1.60;;;;;;;18.76;36.60;101450.41;3972939;32;15021120;-72
2022/01/19 10:46:21;;;;;;;14.25;2.33;;;;;;;18.76;36.60;101450.41;4427255;32;20475;-73
2022/01/19 10:48:55;;;;;;;11.20;1.58;;;;;;;18.54;36.26;101455.50;4424940;32;20085;-72
2022/01/19 10:51:21;;;;;;;13.65;1.55;;;;;;;18.47;35.72;101450.91;4424027;32;20435;-72
2022/01/19 10:54:07;;;;;;;10.63;1.90;;;;;;;18.55;35.50;101422.88;4425525;32;20099;-71
2022/01/19 10:56:35;;;;;;;8.95;1.27;;;;;;;18.29;35.55;101418.75;4419496;32;20434;-71
2022/01/19 10:59:04;;;;;;;8.77;1.40;;;;;;;17.53;36.58;101419.63;4423807;32;20119;-71
2022/01/19 11:04:38;;;;;;;10.38;1.45;;;;;;;18.82;34.43;101449.28;3979047;32;15021309;-71
2022/01/19 11:07:10;;;;;;;9.10;1.83;;;;;;;18.82;34.43;101449.28;4426879;32;20406;-71
2022/01/19 11:09:45;;;;;;;10.50;1.90;;;;;;;18.25;35.03;101447.41;4430661;32;20655;-71
2022/01/19 11:12:15;;;;;;;9.93;1.80;;;;;;;17.96;35.18;101426.34;4433907;32;20068;-71
2022/01/19 11:14:42;;;;;;;11.38;1.70;;;;;;;18.30;35.26;101426.81;4430753;32;20167;-73
2022/01/19 11:17:09;;;;;;;11.23;1.80;;;;;;;18.80;34.69;101446.13;4432492;32;20042;-72
2022/01/19 11:19:40;;;;;;;16.40;2.00;;;;;;;18.22;35.14;101464.66;4428847;32;20065;-72
2022/01/19 11:22:45;;;;;;;11.15;1.75;;;;;;;18.40;35.26;101450.44;4428859;32;20149;-71
2022/01/19 11:28:07;;;;;;;11.05;1.67;;;;;;;18.76;34.42;101464.66;3981956;32;15023423;-73
2022/01/19 11:30:34;;;;;;;14.80;2.22;;;;;;;18.61;35.04;101463.72;4434027;32;20408;-72
2022/01/19 11:33:24;;;;;;;11.45;2.87;;;;;;;18.90;34.83;101472.56;4430185;32;20077;-71
2022/01/19 11:35:53;;;;;;;11.70;1.90;;;;;;;19.10;33.86;101481.37;4432610;32;20072;-70
2022/01/19 11:43:58;;;;;;;10.48;1.58;;;;;;;20.60;31.39;101515.84;3978424;32;15030544;-71
2022/01/19 11:49:06;;;;;;;7.87;2.30;;;;;;;21.14;30.88;101517.44;3964977;32;15033256;-72
2022/01/19 11:51:35;;;;;;;8.90;2.00;;;;;;;21.14;30.88;101517.44;4414163;32;20315;-72
2022/01/19 12:02:36;;;;;;;8.35;1.45;;;;;;;19.60;32.26;101483.44;3937593;32;16202755;-73
2022/01/19 12:10:20;;;;;;;13.82;1.67;;;;;;;20.27;31.00;101480.84;3972001;32;15023566;-73
2022/01/19 12:21:13;;;;;;;10.70;1.95;;;;;;;20.49;30.37;101520.56;3978688;32;15023098;-72
2022/01/19 12:23:40;;;;;;;14.65;2.72;;;;;;;20.49;30.37;101520.56;4422535;32;20096;-72
2022/01/19 12:26:09;;;;;;;9.13;1.85;;;;;;;20.57;30.46;101524.59;4424690;32;20133;-73
2022/01/19 12:36:42;;;;;;;7.97;1.33;;;;;;;21.07;29.47;101532.13;3978635;31;15023954;-73
2022/01/19 12:52:53;;;;;;;12.88;1.70;;;;;;;23.53;26.04;101552.53;3970844;32;15022932;-73
2022/01/19 12:57:59;;;;;;;11.88;2.30;;;;;;;23.05;27.47;101568.75;3966632;32;15021742;-72
2022/01/19 13:00:28;;;;;;;12.55;2.37;;;;;;;23.05;27.47;101568.75;4414198;32;20586;-73
2022/01/19 13:02:53;;;;;;;13.50;1.80;;;;;;;22.91;27.23;101578.22;4415009;32;20046;-71
2022/01/19 13:05:21;;;;;;;14.20;1.80;;;;;;;20.79;29.61;101571.63;4416922;32;20038;-72
2022/01/19 13:07:54;;;;;;;14.00;2.30;;;;;;;20.87;29.95;101564.25;4415792;32;20696;-72
2022/01/19 13:10:33;;;;;;;12.85;1.73;;;;;;;21.39;29.48;101569.16;4414324;32;20257;-72
2022/01/19 13:13:13;;;;;;;10.48;2.35;;;;;;;22.00;28.89;101569.41;4412981;32;20115;-72
2022/01/19 13:18:35;;;;;;;8.85;1.67;;;;;;;22.64;27.13;101579.47;3985300;31;15015641;-72
2022/01/19 13:21:09;;;;;;;9.80;1.52;;;;;;;22.64;27.13;101579.47;4442346;32;20256;-72
2022/01/19 13:23:51;;;;;;;9.30;2.10;;;;;;;21.87;28.02;101597.62;4444257;32;20142;-73
2022/01/19 13:26:18;;;;;;;12.37;1.98;;;;;;;21.37;28.83;101588.12;4447397;32;20100;-72
2022/01/19 13:28:44;;;;;;;10.30;1.92;;;;;;;21.76;28.53;101585.97;4443360;32;20120;-73
2022/01/19 13:34:00;;;;;;;9.07;2.00;;;;;;;20.81;29.70;101591.16;3983016;31;15015860;-71
2022/01/19 13:36:28;;;;;;;9.07;1.80;;;;;;;21.43;28.91;101591.88;4444015;32;20072;-72
2022/01/19 13:38:56;;;;;;;5.72;1.75;;;;;;;21.37;28.58;101596.69;4440261;32;20101;-73
2022/01/19 13:41:24;;;;;;;5.87;1.27;;;;;;;20.83;29.37;101585.75;4440210;32;20578;-72
2022/01/19 13:43:52;;;;;;;8.05;1.50;;;;;;;21.68;28.51;101594.94;4442818;32;20077;-72
2022/01/19 13:46:25;;;;;;;8.05;1.92;;;;;;;21.78;27.99;101597.72;4442089;32;20068;-72
2022/01/19 13:48:58;;;;;;;8.77;1.90;;;;;;;22.84;26.88;101602.44;4443262;32;20096;-74
2022/01/19 13:51:26;;;;;;;9.25;1.67;;;;;;;22.83;27.27;101623.03;4439724;32;20675;-72
2022/01/19 13:53:54;;;;;;;10.00;1.95;;;;;;;21.93;27.98;101636.53;4440438;32;20515;-72
2022/01/19 13:56:42;;;;;;;10.30;1.62;;;;;;;22.72;27.00;101635.16;4427704;32;20485;-72
2022/01/19 14:01:52;;;;;;;7.20;2.08;;;;;;;23.09;26.04;101639.03;3945441;32;15733248;-73
2022/01/19 14:04:18;;;;;;;8.35;2.03;;;;;;;21.53;27.87;101636.31;4417823;32;20051;-72
2022/01/19 14:06:47;;;;;;;6.25;1.27;;;;;;;22.61;26.56;101637.09;4406927;32;20056;-73